sensor_id;sensor_type;location;lat;lon;timestamp;pressure;altitude;pressure_sealevel;temperature;humidity
39897;BME280;25567;48.276;14.242;2023-03-01T00:00:13;99204.56;;;0.54;70.76
39897;BME280;25567;48.276;14.242;2023-03-01T00:02:40;99207.50;;;0.51;71.15
39897;BME280;25567;48.276;14.242;2023-03-01T00:05:07;99206.00;;;0.48;71.62
39897;BME280;25567;48.276;14.242;2023-03-01T00:07:34;99202.84;;;0.45;71.14
39897;BME280;25567;48.276;14.242;2023-03-01T00:10:00;99206.28;;;0.45;72.03
39897;BME280;25567;48.276;14.242;2023-03-01T00:12:27;99210.97;;;0.42;71.08
39897;BME280;25567;48.276;14.242;2023-03-01T00:14:54;99205.75;;;0.42;71.29
39897;BME280;25567;48.276;14.242;2023-03-01T00:17:20;99208.66;;;0.39;71.75
39897;BME280;25567;48.276;14.242;2023-03-01T00:19:47;99199.16;;;0.38;71.95
39897;BME280;25567;48.276;14.242;2023-03-01T00:22:14;99203.56;;;0.37;71.35
39897;BME280;25567;48.276;14.242;2023-03-01T00:24:40;99201.09;;;0.36;71.71
39897;BME280;25567;48.276;14.242;2023-03-01T00:27:07;99198.63;;;0.34;71.99
39897;BME280;25567;48.276;14.242;2023-03-01T00:29:34;99199.31;;;0.36;71.65
39897;BME280;25567;48.276;14.242;2023-03-01T00:32:00;99200.13;;;0.37;71.59
39897;BME280;25567;48.276;14.242;2023-03-01T00:34:27;99189.16;;;0.33;71.52
39897;BME280;25567;48.276;14.242;2023-03-01T00:36:54;99195.47;;;0.30;71.04
39897;BME280;25567;48.276;14.242;2023-03-01T00:39:20;99192.59;;;0.33;71.55
39897;BME280;25567;48.276;14.242;2023-03-01T00:41:47;99202.09;;;0.35;71.29
39897;BME280;25567;48.276;14.242;2023-03-01T00:44:14;99197.97;;;0.32;71.02
39897;BME280;25567;48.276;14.242;2023-03-01T00:46:40;99195.34;;;0.32;71.36
39897;BME280;25567;48.276;14.242;2023-03-01T00:49:07;99197.28;;;0.30;70.67
39897;BME280;25567;48.276;14.242;2023-03-01T00:51:34;99197.81;;;0.33;71.01
39897;BME280;25567;48.276;14.242;2023-03-01T00:54:01;99191.09;;;0.31;70.74
39897;BME280;25567;48.276;14.242;2023-03-01T00:56:29;99189.44;;;0.30;71.15
39897;BME280;25567;48.276;14.242;2023-03-01T00:58:57;99184.69;;;0.25;70.45
39897;BME280;25567;48.276;14.242;2023-03-01T01:01:25;99185.63;;;0.24;70.54
39897;BME280;25567;48.276;14.242;2023-03-01T01:03:59;99189.22;;;0.23;70.15
39897;BME280;25567;48.276;14.242;2023-03-01T01:06:30;99186.06;;;0.20;70.75
39897;BME280;25567;48.276;14.242;2023-03-01T01:08:57;99178.22;;;0.20;71.01
39897;BME280;25567;48.276;14.242;2023-03-01T01:11:26;99169.59;;;0.19;71.09
39897;BME280;25567;48.276;14.242;2023-03-01T01:13:53;99168.47;;;0.22;71.07
39897;BME280;25567;48.276;14.242;2023-03-01T01:16:23;99159.97;;;0.20;70.91
39897;BME280;25567;48.276;14.242;2023-03-01T01:18:50;99157.91;;;0.23;70.25
39897;BME280;25567;48.276;14.242;2023-03-01T01:21:20;99157.50;;;0.18;70.70
39897;BME280;25567;48.276;14.242;2023-03-01T01:23:47;99160.50;;;0.23;70.47
39897;BME280;25567;48.276;14.242;2023-03-01T01:26:17;99149.53;;;0.20;70.22
39897;BME280;25567;48.276;14.242;2023-03-01T01:28:44;99148.31;;;0.14;70.42
39897;BME280;25567;48.276;14.242;2023-03-01T01:31:11;99148.31;;;0.14;70.44
39897;BME280;25567;48.276;14.242;2023-03-01T01:33:38;99143.25;;;0.12;70.64
39897;BME280;25567;48.276;14.242;2023-03-01T01:36:06;99137.50;;;0.09;70.87
39897;BME280;25567;48.276;14.242;2023-03-01T01:38:34;99142.72;;;0.09;70.98
39897;BME280;25567;48.276;14.242;2023-03-01T01:41:01;99133.38;;;0.06;70.92
39897;BME280;25567;48.276;14.242;2023-03-01T01:43:31;99137.50;;;0.09;70.71
39897;BME280;25567;48.276;14.242;2023-03-01T01:46:04;99138.59;;;0.06;70.67
39897;BME280;25567;48.276;14.242;2023-03-01T01:48:39;99147.13;;;0.08;70.34
39897;BME280;25567;48.276;14.242;2023-03-01T01:51:12;99135.44;;;0.03;70.24
39897;BME280;25567;48.276;14.242;2023-03-01T01:53:40;99139.31;;;-0.02;70.50
39897;BME280;25567;48.276;14.242;2023-03-01T01:56:11;99137.69;;;-0.03;70.47
39897;BME280;25567;48.276;14.242;2023-03-01T01:58:40;99133.59;;;-0.05;70.76
39897;BME280;25567;48.276;14.242;2023-03-01T02:01:08;99131.25;;;-0.08;70.88
39897;BME280;25567;48.276;14.242;2023-03-01T02:03:38;99139.91;;;-0.08;70.72
39897;BME280;25567;48.276;14.242;2023-03-01T02:08:38;99128.63;;;-0.08;70.75
39897;BME280;25567;48.276;14.242;2023-03-01T02:11:05;99126.19;;;-0.10;70.70
39897;BME280;25567;48.276;14.242;2023-03-01T02:13:33;99120.81;;;-0.08;70.54
39897;BME280;25567;48.276;14.242;2023-03-01T02:16:05;99117.09;;;-0.06;70.46
39897;BME280;25567;48.276;14.242;2023-03-01T02:18:34;99121.91;;;-0.11;70.96
39897;BME280;25567;48.276;14.242;2023-03-01T02:23:43;99109.31;;;-0.15;71.06
39897;BME280;25567;48.276;14.242;2023-03-01T02:28:58;99112.06;;;-0.17;71.21
39897;BME280;25567;48.276;14.242;2023-03-01T02:31:25;99115.66;;;-0.18;70.84
39897;BME280;25567;48.276;14.242;2023-03-01T02:34:11;99102.75;;;-0.20;71.37
39897;BME280;25567;48.276;14.242;2023-03-01T02:36:42;99101.75;;;-0.09;70.81
39897;BME280;25567;48.276;14.242;2023-03-01T02:39:15;99099.69;;;-0.15;70.82
39897;BME280;25567;48.276;14.242;2023-03-01T02:41:47;99100.28;;;-0.21;70.71
39897;BME280;25567;48.276;14.242;2023-03-01T02:44:14;99099.47;;;-0.22;71.15
39897;BME280;25567;48.276;14.242;2023-03-01T02:46:44;99093.13;;;-0.19;71.18
39897;BME280;25567;48.276;14.242;2023-03-01T02:57:26;99098.66;;;-0.22;70.70
39897;BME280;25567;48.276;14.242;2023-03-01T02:59:54;99100.28;;;-0.21;71.48
39897;BME280;25567;48.276;14.242;2023-03-01T03:02:25;99089.88;;;-0.21;70.97
39897;BME280;25567;48.276;14.242;2023-03-01T03:05:10;99086.88;;;-0.26;71.32
39897;BME280;25567;48.276;14.242;2023-03-01T03:07:39;99086.16;;;-0.28;71.12
39897;BME280;25567;48.276;14.242;2023-03-01T03:10:10;99084.25;;;-0.26;71.80
39897;BME280;25567;48.276;14.242;2023-03-01T03:12:38;99083.28;;;-0.25;71.80
39897;BME280;25567;48.276;14.242;2023-03-01T03:15:06;99086.31;;;-0.30;71.26
39897;BME280;25567;48.276;14.242;2023-03-01T03:17:37;99089.47;;;-0.26;71.23
39897;BME280;25567;48.276;14.242;2023-03-01T03:20:06;99086.47;;;-0.31;71.35
39897;BME280;25567;48.276;14.242;2023-03-01T03:22:39;99090.72;;;-0.30;71.66
39897;BME280;25567;48.276;14.242;2023-03-01T03:25:07;99083.88;;;-0.31;71.25
39897;BME280;25567;48.276;14.242;2023-03-01T03:27:39;99082.22;;;-0.32;71.32
39897;BME280;25567;48.276;14.242;2023-03-01T03:30:07;99075.88;;;-0.30;71.44
39897;BME280;25567;48.276;14.242;2023-03-01T03:32:36;99066.28;;;-0.29;71.20
39897;BME280;25567;48.276;14.242;2023-03-01T03:35:04;99060.41;;;-0.31;71.00
39897;BME280;25567;48.276;14.242;2023-03-01T03:37:37;99064.66;;;-0.30;71.08
39897;BME280;25567;48.276;14.242;2023-03-01T03:40:19;99053.94;;;-0.27;70.56
39897;BME280;25567;48.276;14.242;2023-03-01T03:42:46;99061.19;;;-0.21;70.32
39897;BME280;25567;48.276;14.242;2023-03-01T03:45:17;99054.31;;;-0.22;71.14
39897;BME280;25567;48.276;14.242;2023-03-01T03:47:44;99061.44;;;-0.24;71.05
39897;BME280;25567;48.276;14.242;2023-03-01T03:50:12;99054.47;;;-0.24;70.72
39897;BME280;25567;48.276;14.242;2023-03-01T03:52:39;99055.28;;;-0.23;70.26
39897;BME280;25567;48.276;14.242;2023-03-01T03:55:07;99061.44;;;-0.24;70.39
39897;BME280;25567;48.276;14.242;2023-03-01T03:57:37;99057.88;;;-0.23;70.26
39897;BME280;25567;48.276;14.242;2023-03-01T04:00:05;99058.84;;;-0.24;70.22
39897;BME280;25567;48.276;14.242;2023-03-01T04:02:40;99063.66;;;-0.20;70.60
39897;BME280;25567;48.276;14.242;2023-03-01T04:05:08;99059.94;;;-0.17;69.98
39897;BME280;25567;48.276;14.242;2023-03-01T04:07:35;99063.78;;;-0.21;70.42
39897;BME280;25567;48.276;14.242;2023-03-01T04:10:04;99064.34;;;-0.27;70.60
39897;BME280;25567;48.276;14.242;2023-03-01T04:12:30;99067.63;;;-0.25;70.60
39897;BME280;25567;48.276;14.242;2023-03-01T04:14:57;99069.28;;;-0.24;71.09
39897;BME280;25567;48.276;14.242;2023-03-01T04:17:24;99071.88;;;-0.24;70.37
39897;BME280;25567;48.276;14.242;2023-03-01T04:19:51;99064.34;;;-0.27;70.88
39897;BME280;25567;48.276;14.242;2023-03-01T04:22:17;99065.47;;;-0.30;70.41
39897;BME280;25567;48.276;14.242;2023-03-01T04:24:44;99058.44;;;-0.29;70.79
39897;BME280;25567;48.276;14.242;2023-03-01T04:27:11;99066.41;;;-0.31;70.34
39897;BME280;25567;48.276;14.242;2023-03-01T04:29:38;99063.00;;;-0.31;70.99
39897;BME280;25567;48.276;14.242;2023-03-01T04:32:04;99063.00;;;-0.31;70.95
39897;BME280;25567;48.276;14.242;2023-03-01T04:34:31;99061.06;;;-0.29;70.21
39897;BME280;25567;48.276;14.242;2023-03-01T04:36:58;99058.44;;;-0.29;70.97
39897;BME280;25567;48.276;14.242;2023-03-01T04:39:24;99054.22;;;-0.30;70.78
39897;BME280;25567;48.276;14.242;2023-03-01T04:41:51;99053.38;;;-0.31;70.28
39897;BME280;25567;48.276;14.242;2023-03-01T04:44:18;99050.63;;;-0.29;70.89
39897;BME280;25567;48.276;14.242;2023-03-01T04:46:48;99062.41;;;-0.25;69.80
39897;BME280;25567;48.276;14.242;2023-03-01T04:49:15;99054.75;;;-0.27;70.56
39897;BME280;25567;48.276;14.242;2023-03-01T04:51:42;99046.69;;;-0.34;70.62
39897;BME280;25567;48.276;14.242;2023-03-01T04:54:09;99045.88;;;-0.34;70.74
39897;BME280;25567;48.276;14.242;2023-03-01T04:56:36;99045.31;;;-0.38;70.99
39897;BME280;25567;48.276;14.242;2023-03-01T04:59:03;99041.06;;;-0.39;70.79
39897;BME280;25567;48.276;14.242;2023-03-01T05:01:32;99047.94;;;-0.38;71.46
39897;BME280;25567;48.276;14.242;2023-03-01T05:04:00;99047.13;;;-0.38;71.23
39897;BME280;25567;48.276;14.242;2023-03-01T05:06:29;99037.78;;;-0.41;70.58
39897;BME280;25567;48.276;14.242;2023-03-01T05:08:56;99043.97;;;-0.42;70.36
39897;BME280;25567;48.276;14.242;2023-03-01T05:11:23;99045.47;;;-0.39;71.41
39897;BME280;25567;48.276;14.242;2023-03-01T05:13:50;99043.00;;;-0.41;71.36
39897;BME280;25567;48.276;14.242;2023-03-01T05:16:21;99047.38;;;-0.41;70.67
39897;BME280;25567;48.276;14.242;2023-03-01T05:18:48;99052.91;;;-0.44;71.16
39897;BME280;25567;48.276;14.242;2023-03-01T05:21:17;99056.31;;;-0.44;71.63
39897;BME280;25567;48.276;14.242;2023-03-01T05:23:44;99057.28;;;-0.45;70.94
39897;BME280;25567;48.276;14.242;2023-03-01T05:26:11;99053.69;;;-0.44;70.94
39897;BME280;25567;48.276;14.242;2023-03-01T05:28:58;99056.31;;;-0.44;71.12
39897;BME280;25567;48.276;14.242;2023-03-01T05:31:26;99058.34;;;-0.38;71.38
39897;BME280;25567;48.276;14.242;2023-03-01T05:33:53;99059.47;;;-0.40;71.21
39897;BME280;25567;48.276;14.242;2023-03-01T05:36:20;99060.06;;;-0.46;71.72
39897;BME280;25567;48.276;14.242;2023-03-01T05:38:47;99057.56;;;-0.48;72.35
39897;BME280;25567;48.276;14.242;2023-03-01T05:41:14;99053.34;;;-0.49;71.52
39897;BME280;25567;48.276;14.242;2023-03-01T05:43:42;99051.84;;;-0.52;72.16
39897;BME280;25567;48.276;14.242;2023-03-01T05:46:11;99057.16;;;-0.53;71.74
39897;BME280;25567;48.276;14.242;2023-03-01T05:48:39;99065.13;;;-0.55;72.30
39897;BME280;25567;48.276;14.242;2023-03-01T05:51:06;99064.47;;;-0.57;71.93
39897;BME280;25567;48.276;14.242;2023-03-01T05:53:33;99069.53;;;-0.55;71.95
39897;BME280;25567;48.276;14.242;2023-03-01T05:56:03;99069.81;;;-0.58;72.09
39897;BME280;25567;48.276;14.242;2023-03-01T05:58:30;99071.44;;;-0.57;72.80
39897;BME280;25567;48.276;14.242;2023-03-01T06:00:57;99067.34;;;-0.60;72.87
39897;BME280;25567;48.276;14.242;2023-03-01T06:03:24;99072.44;;;-0.58;72.79
39897;BME280;25567;48.276;14.242;2023-03-01T06:05:55;99073.38;;;-0.59;72.65
39897;BME280;25567;48.276;14.242;2023-03-01T06:08:22;99074.75;;;-0.55;72.58
39897;BME280;25567;48.276;14.242;2023-03-01T06:10:50;99072.94;;;-0.55;71.93
39897;BME280;25567;48.276;14.242;2023-03-01T06:13:17;99071.31;;;-0.56;72.81
39897;BME280;25567;48.276;14.242;2023-03-01T06:15:44;99078.00;;;-0.53;72.39
39897;BME280;25567;48.276;14.242;2023-03-01T06:18:10;99071.31;;;-0.56;72.67
39897;BME280;25567;48.276;14.242;2023-03-01T06:20:37;99081.47;;;-0.53;72.01
39897;BME280;25567;48.276;14.242;2023-03-01T06:23:03;99082.00;;;-0.49;71.79
39897;BME280;25567;48.276;14.242;2023-03-01T06:25:30;99073.88;;;-0.46;72.15
39897;BME280;25567;48.276;14.242;2023-03-01T06:27:57;99082.53;;;-0.45;71.60
39897;BME280;25567;48.276;14.242;2023-03-01T06:30:25;99076.19;;;-0.43;72.00
39897;BME280;25567;48.276;14.242;2023-03-01T06:32:52;99077.56;;;-0.39;72.22
39897;BME280;25567;48.276;14.242;2023-03-01T06:35:27;99076.75;;;-0.39;71.90
39897;BME280;25567;48.276;14.242;2023-03-01T06:37:59;99075.78;;;-0.38;71.55
39897;BME280;25567;48.276;14.242;2023-03-01T06:40:27;99069.47;;;-0.36;72.04
39897;BME280;25567;48.276;14.242;2023-03-01T06:42:53;99074.53;;;-0.34;70.92
39897;BME280;25567;48.276;14.242;2023-03-01T06:45:21;99073.44;;;-0.31;71.63
39897;BME280;25567;48.276;14.242;2023-03-01T06:47:48;99075.75;;;-0.28;71.42
39897;BME280;25567;48.276;14.242;2023-03-01T06:50:16;99073.53;;;-0.23;70.75
39897;BME280;25567;48.276;14.242;2023-03-01T06:52:43;99072.28;;;-0.19;71.53
39897;BME280;25567;48.276;14.242;2023-03-01T06:55:12;99077.88;;;-0.14;71.48
39897;BME280;25567;48.276;14.242;2023-03-01T06:57:39;99071.72;;;-0.13;70.48
39897;BME280;25567;48.276;14.242;2023-03-01T07:00:06;99072.25;;;-0.09;70.55
39897;BME280;25567;48.276;14.242;2023-03-01T07:02:33;99069.88;;;-0.03;70.58
39897;BME280;25567;48.276;14.242;2023-03-01T07:05:00;99065.03;;;0.03;70.29
39897;BME280;25567;48.276;14.242;2023-03-01T07:07:27;99072.28;;;0.09;70.18
39897;BME280;25567;48.276;14.242;2023-03-01T07:09:53;99066.75;;;0.12;70.20
39897;BME280;25567;48.276;14.242;2023-03-01T07:12:20;99070.75;;;0.16;69.50
39897;BME280;25567;48.276;14.242;2023-03-01T07:14:47;99068.66;;;0.20;69.79
39897;BME280;25567;48.276;14.242;2023-03-01T07:17:13;99073.28;;;0.26;70.19
39897;BME280;25567;48.276;14.242;2023-03-01T07:19:40;99070.53;;;0.27;70.03
39897;BME280;25567;48.276;14.242;2023-03-01T07:22:07;99063.16;;;0.41;68.93
39897;BME280;25567;48.276;14.242;2023-03-01T07:24:35;99061.06;;;0.44;69.49
39897;BME280;25567;48.276;14.242;2023-03-01T07:27:02;99067.47;;;0.50;69.21
39897;BME280;25567;48.276;14.242;2023-03-01T07:29:29;99054.50;;;0.58;69.92
39897;BME280;25567;48.276;14.242;2023-03-01T07:31:55;99060.94;;;0.64;70.75
39897;BME280;25567;48.276;14.242;2023-03-01T07:34:22;99058.56;;;0.71;70.75
39897;BME280;25567;48.276;14.242;2023-03-01T07:36:49;99058.56;;;0.71;71.43
39897;BME280;25567;48.276;14.242;2023-03-01T07:39:16;99051.53;;;0.71;71.58
39897;BME280;25567;48.276;14.242;2023-03-01T07:41:45;99048.31;;;0.77;71.47
39897;BME280;25567;48.276;14.242;2023-03-01T07:44:11;99044.44;;;0.81;71.64
39897;BME280;25567;48.276;14.242;2023-03-01T07:46:41;99035.78;;;0.81;72.25
39897;BME280;25567;48.276;14.242;2023-03-01T07:49:08;99036.66;;;0.90;71.95
39897;BME280;25567;48.276;14.242;2023-03-01T07:51:35;99039.03;;;1.01;72.49
39897;BME280;25567;48.276;14.242;2023-03-01T07:54:01;99033.06;;;1.09;71.64
39897;BME280;25567;48.276;14.242;2023-03-01T07:56:28;99026.03;;;1.09;71.90
39897;BME280;25567;48.276;14.242;2023-03-01T07:58:55;99032.41;;;1.15;72.12
39897;BME280;25567;48.276;14.242;2023-03-01T08:01:22;99034.44;;;1.21;71.86
39897;BME280;25567;48.276;14.242;2023-03-01T08:03:49;99032.53;;;1.31;72.31
39897;BME280;25567;48.276;14.242;2023-03-01T08:06:16;99032.88;;;1.37;72.54
39897;BME280;25567;48.276;14.242;2023-03-01T08:08:44;99033.88;;;1.36;71.70
39897;BME280;25567;48.276;14.242;2023-03-01T08:11:12;99028.00;;;1.42;71.93
39897;BME280;25567;48.276;14.242;2023-03-01T08:13:40;99021.47;;;1.46;71.61
39897;BME280;25567;48.276;14.242;2023-03-01T08:16:10;99025.78;;;1.55;70.89
39897;BME280;25567;48.276;14.242;2023-03-01T08:18:37;99027.13;;;1.59;70.82
39897;BME280;25567;48.276;14.242;2023-03-01T08:21:06;99031.25;;;1.70;69.95
39897;BME280;25567;48.276;14.242;2023-03-01T08:23:33;99027.03;;;1.77;69.98
39897;BME280;25567;48.276;14.242;2023-03-01T08:26:10;99026.91;;;1.87;70.01
39897;BME280;25567;48.276;14.242;2023-03-01T08:28:39;99028.59;;;2.05;70.13
39897;BME280;25567;48.276;14.242;2023-03-01T08:31:18;99018.66;;;2.16;69.70
39897;BME280;25567;48.276;14.242;2023-03-01T08:33:46;99022.78;;;2.44;68.74
39897;BME280;25567;48.276;14.242;2023-03-01T08:36:32;99013.63;;;2.48;67.74
39897;BME280;25567;48.276;14.242;2023-03-01T08:38:59;99019.53;;;2.58;68.10
39897;BME280;25567;48.276;14.242;2023-03-01T08:41:27;99007.25;;;2.59;67.65
39897;BME280;25567;48.276;14.242;2023-03-01T08:43:54;99001.69;;;2.62;67.41
39897;BME280;25567;48.276;14.242;2023-03-01T08:46:26;98995.31;;;2.73;66.63
39897;BME280;25567;48.276;14.242;2023-03-01T08:48:54;98998.22;;;2.86;66.77
39897;BME280;25567;48.276;14.242;2023-03-01T08:51:21;98999.38;;;2.92;66.76
39897;BME280;25567;48.276;14.242;2023-03-01T08:53:48;98990.69;;;3.08;65.99
39897;BME280;25567;48.276;14.242;2023-03-01T08:56:16;98984.28;;;3.19;65.54
39897;BME280;25567;48.276;14.242;2023-03-01T08:58:44;98987.63;;;3.52;65.27
39897;BME280;25567;48.276;14.242;2023-03-01T09:01:14;98980.38;;;3.62;64.55
39897;BME280;25567;48.276;14.242;2023-03-01T09:03:41;98973.47;;;3.61;63.77
39897;BME280;25567;48.276;14.242;2023-03-01T09:06:09;98968.41;;;3.60;64.02
39897;BME280;25567;48.276;14.242;2023-03-01T09:08:38;98965.00;;;3.51;63.80
39897;BME280;25567;48.276;14.242;2023-03-01T09:11:07;98961.38;;;3.52;63.98
39897;BME280;25567;48.276;14.242;2023-03-01T09:13:34;98956.13;;;3.52;63.78
39897;BME280;25567;48.276;14.242;2023-03-01T09:16:03;98957.56;;;3.63;63.05
39897;BME280;25567;48.276;14.242;2023-03-01T09:18:31;98949.91;;;3.84;63.46
39897;BME280;25567;48.276;14.242;2023-03-01T09:21:14;98942.94;;;4.00;63.94
39897;BME280;25567;48.276;14.242;2023-03-01T09:23:43;98945.03;;;4.05;63.08
39897;BME280;25567;48.276;14.242;2023-03-01T09:26:12;98946.44;;;4.15;62.94
39897;BME280;25567;48.276;14.242;2023-03-01T09:28:40;98939.59;;;4.29;62.47
39897;BME280;25567;48.276;14.242;2023-03-01T09:31:08;98948.97;;;4.47;62.65
39897;BME280;25567;48.276;14.242;2023-03-01T09:33:34;98942.50;;;4.58;62.97
39897;BME280;25567;48.276;14.242;2023-03-01T09:36:05;98938.75;;;4.75;62.20
39897;BME280;25567;48.276;14.242;2023-03-01T09:38:32;98947.72;;;4.81;61.62
39897;BME280;25567;48.276;14.242;2023-03-01T09:41:00;98956.53;;;5.03;63.07
39897;BME280;25567;48.276;14.242;2023-03-01T09:43:50;98945.47;;;5.08;61.38
39897;BME280;25567;48.276;14.242;2023-03-01T09:46:23;98941.66;;;4.95;62.01
39897;BME280;25567;48.276;14.242;2023-03-01T09:48:56;98945.28;;;4.94;62.14
39897;BME280;25567;48.276;14.242;2023-03-01T09:51:29;98939.50;;;4.99;62.48
39897;BME280;25567;48.276;14.242;2023-03-01T09:53:57;98929.41;;;4.88;62.93
39897;BME280;25567;48.276;14.242;2023-03-01T09:56:46;98926.44;;;5.21;62.40
39897;BME280;25567;48.276;14.242;2023-03-01T10:09:48;98904.63;;;5.93;60.37
39897;BME280;25567;48.276;14.242;2023-03-01T10:12:18;98903.97;;;5.91;61.22
39897;BME280;25567;48.276;14.242;2023-03-01T10:20:32;98890.41;;;6.31;60.04
39897;BME280;25567;48.276;14.242;2023-03-01T10:23:01;98893.88;;;6.31;59.11
39897;BME280;25567;48.276;14.242;2023-03-01T10:25:50;98891.47;;;6.37;59.28
39897;BME280;25567;48.276;14.242;2023-03-01T10:28:28;98882.53;;;6.38;60.01
39897;BME280;25567;48.276;14.242;2023-03-01T10:30:58;98883.75;;;6.35;59.67
39897;BME280;25567;48.276;14.242;2023-03-01T10:33:30;98877.00;;;6.54;59.46
39897;BME280;25567;48.276;14.242;2023-03-01T10:35:57;98861.41;;;6.53;59.75
39897;BME280;25567;48.276;14.242;2023-03-01T10:38:31;98856.78;;;6.61;59.21
39897;BME280;25567;48.276;14.242;2023-03-01T10:41:04;98854.75;;;6.98;58.72
39897;BME280;25567;48.276;14.242;2023-03-01T10:43:48;98852.13;;;6.98;58.25
39897;BME280;25567;48.276;14.242;2023-03-01T10:46:33;98842.94;;;6.88;58.56
39897;BME280;25567;48.276;14.242;2023-03-01T10:49:14;98840.53;;;7.41;58.75
39897;BME280;25567;48.276;14.242;2023-03-01T10:51:44;98831.00;;;7.40;57.85
39897;BME280;25567;48.276;14.242;2023-03-01T10:54:31;98830.84;;;7.68;58.34
39897;BME280;25567;48.276;14.242;2023-03-01T10:57:01;98829.66;;;7.84;58.04
39897;BME280;25567;48.276;14.242;2023-03-01T10:59:35;98819.94;;;7.98;57.26
39897;BME280;25567;48.276;14.242;2023-03-01T11:02:03;98810.75;;;8.01;56.79
39897;BME280;25567;48.276;14.242;2023-03-01T11:07:50;98811.34;;;7.49;57.29
39897;BME280;25567;48.276;14.242;2023-03-01T11:10:20;98804.78;;;7.39;57.71
39897;BME280;25567;48.276;14.242;2023-03-01T11:12:46;98805.22;;;7.49;57.68
39897;BME280;25567;48.276;14.242;2023-03-01T11:15:25;98802.19;;;7.52;57.82
39897;BME280;25567;48.276;14.242;2023-03-01T11:17:52;98800.81;;;7.70;60.04
39897;BME280;25567;48.276;14.242;2023-03-01T11:20:35;98791.47;;;7.80;57.71
39897;BME280;25567;48.276;14.242;2023-03-01T11:23:07;98793.06;;;7.61;57.40
39897;BME280;25567;48.276;14.242;2023-03-01T11:25:38;98788.81;;;7.60;57.62
39897;BME280;25567;48.276;14.242;2023-03-01T11:28:09;98781.31;;;7.64;57.97
39897;BME280;25567;48.276;14.242;2023-03-01T11:33:48;98768.09;;;8.11;57.63
39897;BME280;25567;48.276;14.242;2023-03-01T11:38:43;98756.72;;;7.90;57.79
39897;BME280;25567;48.276;14.242;2023-03-01T11:41:14;98753.03;;;8.18;57.72
39897;BME280;25567;48.276;14.242;2023-03-01T11:49:26;98761.34;;;8.55;57.59
39897;BME280;25567;48.276;14.242;2023-03-01T11:54:51;98743.28;;;8.97;56.66
39897;BME280;25567;48.276;14.242;2023-03-01T12:00:21;98746.53;;;8.99;56.32
39897;BME280;25567;48.276;14.242;2023-03-01T12:08:37;98741.63;;;9.03;54.60
39897;BME280;25567;48.276;14.242;2023-03-01T12:19:15;98740.00;;;9.09;55.79
39897;BME280;25567;48.276;14.242;2023-03-01T12:36:20;98708.91;;;9.29;54.98
39897;BME280;25567;48.276;14.242;2023-03-01T12:39:11;98710.59;;;9.24;55.86
39897;BME280;25567;48.276;14.242;2023-03-01T12:41:43;98717.03;;;9.34;55.89
39897;BME280;25567;48.276;14.242;2023-03-01T12:49:36;98718.06;;;8.95;55.67
39897;BME280;25567;48.276;14.242;2023-03-01T12:55:09;98723.25;;;9.15;55.98
39897;BME280;25567;48.276;14.242;2023-03-01T12:58:04;98716.91;;;8.84;55.13
39897;BME280;25567;48.276;14.242;2023-03-01T13:03:59;98724.06;;;9.15;55.32
39897;BME280;25567;48.276;14.242;2023-03-01T13:06:54;98714.66;;;8.88;55.42
39897;BME280;25567;48.276;14.242;2023-03-01T13:13:11;98708.84;;;9.04;55.66
39897;BME280;25567;48.276;14.242;2023-03-01T13:17:54;98704.34;;;9.11;55.60
39897;BME280;25567;48.276;14.242;2023-03-01T13:20:30;98699.72;;;9.00;55.63
39897;BME280;25567;48.276;14.242;2023-03-01T13:23:03;98690.66;;;8.82;55.96
39897;BME280;25567;48.276;14.242;2023-03-01T13:25:31;98702.31;;;8.68;56.13
39897;BME280;25567;48.276;14.242;2023-03-01T13:30:54;98698.53;;;8.50;56.79
39897;BME280;25567;48.276;14.242;2023-03-01T13:33:43;98696.88;;;8.56;56.89
39897;BME280;25567;48.276;14.242;2023-03-01T13:44:30;98689.97;;;9.00;56.40
39897;BME280;25567;48.276;14.242;2023-03-01T13:49:28;98687.06;;;9.09;56.36
39897;BME280;25567;48.276;14.242;2023-03-01T13:52:30;98682.25;;;9.24;55.88
39897;BME280;25567;48.276;14.242;2023-03-01T13:54:59;98681.94;;;9.14;55.63
39897;BME280;25567;48.276;14.242;2023-03-01T13:57:33;98689.50;;;9.10;55.91
39897;BME280;25567;48.276;14.242;2023-03-01T14:00:00;98677.75;;;8.99;55.90
39897;BME280;25567;48.276;14.242;2023-03-01T14:02:27;98677.66;;;9.13;56.33
39897;BME280;25567;48.276;14.242;2023-03-01T14:05:01;98673.22;;;9.07;55.76
39897;BME280;25567;48.276;14.242;2023-03-01T14:07:28;98676.25;;;9.10;56.08
39897;BME280;25567;48.276;14.242;2023-03-01T14:09:58;98669.00;;;8.99;56.13
39897;BME280;25567;48.276;14.242;2023-03-01T14:15:34;98669.41;;;9.28;55.58
39897;BME280;25567;48.276;14.242;2023-03-01T14:18:22;98672.94;;;9.47;54.99
39897;BME280;25567;48.276;14.242;2023-03-01T14:20:53;98669.22;;;9.55;54.96
39897;BME280;25567;48.276;14.242;2023-03-01T14:23:22;98665.31;;;9.32;54.97
39897;BME280;25567;48.276;14.242;2023-03-01T14:25:55;98658.31;;;9.44;55.26
39897;BME280;25567;48.276;14.242;2023-03-01T14:28:26;98658.72;;;9.41;55.17
39897;BME280;25567;48.276;14.242;2023-03-01T14:30:56;98657.06;;;9.47;55.31
39897;BME280;25567;48.276;14.242;2023-03-01T14:33:28;98646.50;;;9.40;55.05
39897;BME280;25567;48.276;14.242;2023-03-01T14:35:58;98632.19;;;9.23;55.71
39897;BME280;25567;48.276;14.242;2023-03-01T14:38:38;98635.13;;;9.40;55.50
39897;BME280;25567;48.276;14.242;2023-03-01T14:41:14;98641.59;;;9.44;55.03
39897;BME280;25567;48.276;14.242;2023-03-01T14:43:48;98643.50;;;9.62;55.10
39897;BME280;25567;48.276;14.242;2023-03-01T14:46:19;98643.97;;;9.52;55.30
39897;BME280;25567;48.276;14.242;2023-03-01T14:48:50;98642.03;;;9.66;55.21
39897;BME280;25567;48.276;14.242;2023-03-01T14:51:17;98639.56;;;9.71;54.84
39897;BME280;25567;48.276;14.242;2023-03-01T14:53:44;98644.19;;;9.76;54.70
39897;BME280;25567;48.276;14.242;2023-03-01T14:56:17;98648.56;;;9.63;55.18
39897;BME280;25567;48.276;14.242;2023-03-01T14:58:46;98659.97;;;9.64;54.60
39897;BME280;25567;48.276;14.242;2023-03-01T15:01:16;98646.56;;;9.59;54.28
39897;BME280;25567;48.276;14.242;2023-03-01T15:03:45;98649.72;;;9.49;55.03
39897;BME280;25567;48.276;14.242;2023-03-01T15:06:16;98657.59;;;9.56;54.86